Time;durP1;ratioP1;P1;durP2;ratioP2;P2;SDS_P1;SDS_P2;PMS_P1;PMS_P2;Temp;Humidity;BMP_temperature;BMP_pressure;BME280_temperature;BME280_humidity;BME280_pressure;Samples;Min_cycle;Max_cycle;Signal;HPM_P1;HPM_P2
2023/03/17 00:01:32;;;;;;;9.02;3.58;;;;;;;1.32;100.00;96960.56;5078267;28;20098;-59
2023/03/17 00:03:59;;;;;;;7.20;3.60;;;;;;;1.32;100.00;96955.25;5075628;28;20040;-59
2023/03/17 00:06:28;;;;;;;8.90;3.38;;;;;;;1.36;100.00;96943.13;5078283;28;20473;-59
2023/03/17 00:08:56;;;;;;;6.50;3.22;;;;;;;1.24;100.00;96950.09;5075085;28;20129;-59
2023/03/17 00:11:24;;;;;;;5.65;3.15;;;;;;;1.15;100.00;96936.94;5070894;28;20036;-60
2023/03/17 00:13:51;;;;;;;7.90;3.63;;;;;;;0.99;100.00;96938.16;5069676;28;20052;-57
2023/03/17 00:16:24;;;;;;;6.85;3.20;;;;;;;0.98;100.00;96941.00;5067172;28;20047;-59
2023/03/17 00:18:52;;;;;;;6.88;3.40;;;;;;;0.97;100.00;96939.38;5064822;28;20045;-59
2023/03/17 00:21:26;;;;;;;6.50;3.78;;;;;;;1.07;100.00;96934.47;5084275;28;20075;-60
2023/03/17 00:23:54;;;;;;;6.97;3.13;;;;;;;1.30;100.00;96936.78;5072937;28;20101;-60
2023/03/17 00:26:21;;;;;;;6.80;3.15;;;;;;;1.37;100.00;96931.44;5070006;28;20052;-59
2023/03/17 00:28:49;;;;;;;7.25;3.33;;;;;;;1.18;100.00;96941.06;5077592;28;20074;-60
2023/03/17 00:31:19;;;;;;;8.57;3.38;;;;;;;1.15;100.00;96936.16;5077849;28;20037;-60
2023/03/17 00:33:49;;;;;;;7.22;3.67;;;;;;;1.13;100.00;96939.00;5072449;28;20040;-60
2023/03/17 00:36:21;;;;;;;6.95;3.10;;;;;;;1.20;100.00;96931.03;5077606;28;20523;-60
2023/03/17 00:38:48;;;;;;;6.57;3.72;;;;;;;1.29;100.00;96937.81;5064346;28;20127;-60
2023/03/17 00:41:16;;;;;;;7.22;3.72;;;;;;;1.30;100.00;96933.31;5074083;28;20411;-60
2023/03/17 00:43:43;;;;;;;6.53;3.60;;;;;;;1.33;100.00;96932.06;5072397;28;20044;-60
2023/03/17 00:46:16;;;;;;;7.20;3.67;;;;;;;1.51;100.00;96926.94;5077096;28;20265;-60
2023/03/17 00:48:44;;;;;;;6.90;3.65;;;;;;;1.87;100.00;96921.38;5070811;28;20119;-59
2023/03/17 00:51:11;;;;;;;5.72;3.40;;;;;;;2.07;100.00;96918.69;5076093;28;20044;-60
2023/03/17 00:53:38;;;;;;;6.70;3.20;;;;;;;2.03;100.00;96909.47;5082635;28;20411;-59
2023/03/17 00:56:12;;;;;;;6.78;3.40;;;;;;;2.08;100.00;96901.63;5074277;28;20637;-60
2023/03/17 00:58:38;;;;;;;5.78;3.10;;;;;;;2.22;100.00;96905.09;5078231;28;20043;-60
2023/03/17 01:01:05;;;;;;;7.93;3.45;;;;;;;2.27;99.06;96905.28;5073923;28;20036;-59
2023/03/17 01:03:32;;;;;;;7.80;3.20;;;;;;;2.32;98.25;96904.66;5078499;28;20094;-60
2023/03/17 01:06:00;;;;;;;5.53;3.00;;;;;;;2.28;98.66;96898.91;5069109;28;20051;-59
2023/03/17 01:08:29;;;;;;;6.25;3.50;;;;;;;2.36;98.95;96897.84;5069515;28;20523;-59
2023/03/17 01:10:56;;;;;;;7.22;3.50;;;;;;;2.46;98.27;96890.22;5071624;28;20040;-60
2023/03/17 01:13:23;;;;;;;9.25;3.97;;;;;;;2.57;97.43;96896.75;5079111;28;20036;-60
2023/03/17 01:15:51;;;;;;;6.85;3.30;;;;;;;2.65;96.05;96892.22;5072303;28;20565;-61
2023/03/17 01:18:21;;;;;;;7.45;3.90;;;;;;;2.74;95.26;96890.94;5082549;28;20082;-58
2023/03/17 01:20:49;;;;;;;7.60;3.80;;;;;;;2.83;95.06;96886.13;5076464;28;20040;-60
2023/03/17 01:23:16;;;;;;;7.03;2.75;;;;;;;3.07;85.28;96875.72;5063277;28;20488;-58
2023/03/17 01:25:44;;;;;;;7.63;3.72;;;;;;;3.18;86.96;96876.88;5070251;28;20041;-60
2023/03/17 01:28:16;;;;;;;6.80;3.30;;;;;;;3.25;86.82;96870.44;5070569;28;20093;-58
2023/03/17 01:30:44;;;;;;;4.65;2.50;;;;;;;3.52;79.10;96866.75;5076686;28;20036;-59
2023/03/17 01:33:12;;;;;;;3.70;1.90;;;;;;;3.94;75.57;96863.47;5083049;28;20105;-59
2023/03/17 01:35:40;;;;;;;5.25;2.00;;;;;;;4.13;74.01;96850.88;5080622;28;20118;-59
2023/03/17 01:38:07;;;;;;;4.28;1.55;;;;;;;4.21;73.27;96847.13;5077212;28;20115;-59
2023/03/17 01:40:43;;;;;;;4.30;2.10;;;;;;;4.29;73.21;96846.81;5074569;28;20136;-59
2023/03/17 01:43:09;;;;;;;7.38;2.20;;;;;;;4.39;71.63;96838.22;5073748;28;20530;-59
2023/03/17 01:46:13;;;;;;;3.80;2.05;;;;;;;4.59;68.93;96841.69;5073020;28;20056;-58
2023/03/17 01:48:56;;;;;;;3.97;2.00;;;;;;;4.61;69.00;96839.63;5076885;28;20036;-59
2023/03/17 01:51:31;;;;;;;4.85;1.88;;;;;;;4.66;67.98;96837.91;5079533;28;20064;-60
2023/03/17 01:54:07;;;;;;;4.22;2.00;;;;;;;4.64;68.70;96839.97;5088044;28;20079;-59
2023/03/17 01:56:36;;;;;;;5.20;2.10;;;;;;;4.63;68.53;96840.19;5081907;28;20040;-59
2023/03/17 01:59:08;;;;;;;4.78;1.70;;;;;;;4.61;68.91;96842.28;5074299;28;20049;-60
2023/03/17 02:01:39;;;;;;;5.80;2.22;;;;;;;4.55;69.39;96836.81;5073400;28;20415;-60
2023/03/17 02:04:07;;;;;;;5.72;1.80;;;;;;;4.54;69.90;96850.44;5075764;28;20038;-61
2023/03/17 02:06:34;;;;;;;3.65;1.88;;;;;;;4.53;70.30;96843.41;5076105;28;20028;-60
2023/03/17 02:09:06;;;;;;;4.43;2.17;;;;;;;4.42;70.92;96843.13;5068549;28;20045;-60
2023/03/17 02:11:34;;;;;;;5.95;2.65;;;;;;;4.37;73.22;96839.50;5070221;28;20043;-60
2023/03/17 02:14:01;;;;;;;5.05;2.50;;;;;;;4.32;72.78;96828.63;5077605;28;20036;-60
2023/03/17 02:16:29;;;;;;;5.63;2.53;;;;;;;4.35;73.46;96847.75;5081733;28;20051;-60
2023/03/17 02:18:56;;;;;;;4.20;2.30;;;;;;;4.30;73.06;96842.25;5082226;28;20039;-59
2023/03/17 02:21:45;;;;;;;6.03;2.47;;;;;;;4.12;75.42;96851.94;5080347;28;20040;-61
2023/03/17 02:24:19;;;;;;;6.72;3.33;;;;;;;4.00;77.13;96845.69;5084372;28;20572;-59
2023/03/17 02:26:48;;;;;;;6.88;3.33;;;;;;;4.00;78.80;96841.16;5077800;28;20168;-61
2023/03/17 02:29:15;;;;;;;5.93;3.00;;;;;;;3.86;79.52;96845.00;5084461;27;20284;-61
2023/03/17 02:31:43;;;;;;;6.13;2.85;;;;;;;3.83;80.37;96840.09;5084700;28;20043;-60
2023/03/17 02:34:10;;;;;;;6.18;2.63;;;;;;;3.77;80.28;96836.44;5079408;28;20059;-61
2023/03/17 02:36:36;;;;;;;6.57;2.90;;;;;;;3.75;79.87;96836.66;5092035;28;20074;-60
2023/03/17 02:39:05;;;;;;;5.32;2.67;;;;;;;3.62;81.62;96839.47;5083740;28;20039;-57
2023/03/17 02:41:31;;;;;;;4.70;2.67;;;;;;;3.52;81.68;96839.97;5072662;28;20594;-60
2023/03/17 02:43:58;;;;;;;6.25;3.30;;;;;;;3.48;83.23;96844.94;5084282;28;20044;-60
2023/03/17 02:46:25;;;;;;;7.60;3.35;;;;;;;3.44;83.10;96841.06;5074553;28;20634;-59
2023/03/17 02:48:53;;;;;;;6.90;3.40;;;;;;;3.46;84.36;96838.97;5083349;28;20130;-59
2023/03/17 02:51:20;;;;;;;3.67;1.85;;;;;;;3.59;76.41;96830.03;5074141;28;20113;-59
2023/03/17 02:53:46;;;;;;;4.28;1.70;;;;;;;3.80;72.50;96830.66;5080053;28;20040;-60
2023/03/17 02:56:13;;;;;;;4.65;1.98;;;;;;;3.97;70.96;96827.38;5081729;28;20109;-60
2023/03/17 02:58:39;;;;;;;4.47;1.95;;;;;;;3.97;72.23;96822.84;5085342;28;20198;-60
2023/03/17 03:01:07;;;;;;;4.47;1.98;;;;;;;3.96;72.59;96813.19;5085685;28;20036;-59
2023/03/17 03:03:35;;;;;;;6.35;2.25;;;;;;;3.96;74.17;96828.41;5080114;28;20044;-59
2023/03/17 03:06:01;;;;;;;4.75;2.22;;;;;;;3.92;71.33;96814.66;5079769;28;20032;-60
2023/03/17 03:08:28;;;;;;;3.08;1.80;;;;;;;3.92;73.09;96817.34;5075850;28;20056;-59
2023/03/17 03:10:55;;;;;;;4.50;2.20;;;;;;;3.89;73.99;96817.78;5082850;28;20032;-60
2023/03/17 03:13:22;;;;;;;5.07;1.98;;;;;;;3.86;73.50;96810.19;5078574;28;20047;-58
2023/03/17 03:15:48;;;;;;;4.25;1.80;;;;;;;3.74;77.34;96816.28;5076253;28;20052;-59
2023/03/17 03:18:15;;;;;;;3.72;2.03;;;;;;;3.69;72.97;96809.97;5072483;28;20041;-61
2023/03/17 03:20:43;;;;;;;4.07;2.10;;;;;;;3.72;71.95;96820.22;5081774;28;20040;-58
2023/03/17 03:23:10;;;;;;;4.70;1.80;;;;;;;3.71;71.43;96818.56;5082941;28;20679;-59
2023/03/17 03:25:38;;;;;;;4.78;1.95;;;;;;;3.69;71.02;96813.44;5084583;28;20031;-59
2023/03/17 03:28:07;;;;;;;5.15;2.20;;;;;;;3.80;70.17;96813.75;5083945;28;20071;-59
2023/03/17 03:30:35;;;;;;;5.53;1.90;;;;;;;3.89;68.91;96807.88;5074635;28;20036;-58
2023/03/17 03:33:02;;;;;;;4.03;2.10;;;;;;;3.88;68.89;96808.91;5073819;28;20051;-58
2023/03/17 03:35:29;;;;;;;4.80;2.00;;;;;;;3.91;68.58;96805.00;5072587;28;20048;-59
2023/03/17 03:37:57;;;;;;;4.53;1.90;;;;;;;3.99;67.80;96806.56;5078232;28;20060;-59
2023/03/17 03:40:24;;;;;;;4.53;2.10;;;;;;;3.96;68.19;96815.03;5070901;28;20036;-60
2023/03/17 03:42:51;;;;;;;6.60;2.22;;;;;;;3.96;67.96;96810.50;5072049;28;20062;-59
2023/03/17 03:45:18;;;;;;;4.45;2.05;;;;;;;3.96;67.74;96812.34;5076115;28;20045;-58
2023/03/17 03:47:44;;;;;;;4.22;2.20;;;;;;;3.87;68.52;96809.97;5076878;28;20579;-60
2023/03/17 03:50:12;;;;;;;3.45;2.05;;;;;;;3.92;67.60;96803.94;5079484;28;20043;-59
2023/03/17 03:52:39;;;;;;;4.27;1.70;;;;;;;3.93;67.54;96807.44;5072570;28;20037;-60
2023/03/17 03:55:06;;;;;;;3.60;1.80;;;;;;;3.88;67.83;96805.44;5081740;28;20114;-60
2023/03/17 03:57:33;;;;;;;;;;;;;;;3.90;67.80;96811.38;5075384;28;20535;-59
2023/03/17 04:00:00;;;;;;;;;;;;;;;3.87;67.60;96807.28;5077089;28;19927;-59
2023/03/17 04:02:26;;;;;;;;;;;;;;;3.84;67.73;96813.06;5070808;28;20346;-60
2023/03/17 04:04:53;;;;;;;3.60;1.60;;;;;;;3.81;68.01;96810.03;5076807;28;19920;-60
2023/03/17 04:07:20;;;;;;;4.40;2.00;;;;;;;3.81;68.19;96812.72;5069193;28;20327;-57
2023/03/17 04:09:48;;;;;;;6.22;2.00;;;;;;;3.80;68.12;96803.03;5071443;28;20044;-60
2023/03/17 04:12:16;;;;;;;5.32;2.28;;;;;;;3.77;68.23;96805.13;5075997;28;20035;-58
2023/03/17 04:14:43;;;;;;;6.60;2.20;;;;;;;3.75;68.33;96796.50;5075786;28;20063;-59
2023/03/17 04:17:11;;;;;;;4.53;2.20;;;;;;;3.75;68.03;96793.81;5075213;28;20043;-60
2023/03/17 04:19:38;;;;;;;3.67;2.08;;;;;;;3.74;68.28;96788.69;5075625;28;20044;-57
2023/03/17 04:22:05;;;;;;;3.67;1.98;;;;;;;3.74;68.14;96791.34;5076878;28;20549;-60
2023/03/17 04:24:33;;;;;;;5.40;2.28;;;;;;;3.77;68.00;96790.91;5074908;28;20136;-58
2023/03/17 04:27:01;;;;;;;3.95;1.98;;;;;;;3.69;68.50;96796.56;5054503;28;20048;-59
2023/03/17 04:29:30;;;;;;;4.57;2.42;;;;;;;3.61;68.88;96792.34;5070901;28;20109;-59
2023/03/17 04:31:57;;;;;;;4.80;1.95;;;;;;;3.61;68.88;96792.34;5080979;28;20035;-59
2023/03/17 04:34:24;;;;;;;4.32;2.10;;;;;;;3.53;69.28;96788.06;5078599;28;20049;-59
2023/03/17 04:36:50;;;;;;;4.43;2.22;;;;;;;3.47;69.52;96784.41;5070730;28;20052;-59
2023/03/17 04:39:17;;;;;;;4.38;1.88;;;;;;;3.51;69.28;96790.16;5075376;28;20119;-59
2023/03/17 04:41:44;;;;;;;3.50;2.08;;;;;;;3.49;69.17;96787.69;5069751;28;20515;-60
2023/03/17 04:44:11;;;;;;;3.58;1.77;;;;;;;3.55;68.98;96790.53;5060218;28;20105;-59
2023/03/17 04:46:38;;;;;;;5.03;2.20;;;;;;;3.56;68.84;96787.63;5086186;28;20101;-60
2023/03/17 04:49:04;;;;;;;4.38;2.20;;;;;;;3.48;69.17;96783.38;5077214;28;20458;-60
2023/03/17 04:51:31;;;;;;;6.50;2.67;;;;;;;3.47;69.02;96783.59;5069107;28;20061;-58
2023/03/17 04:53:57;;;;;;;6.07;2.40;;;;;;;3.48;68.94;96780.72;5081638;28;20107;-58
2023/03/17 04:56:24;;;;;;;2.72;1.42;;;;;;;3.56;68.45;96787.63;5078902;28;20068;-59
2023/03/17 04:58:51;;;;;;;4.68;2.30;;;;;;;3.58;68.22;96779.38;5081080;28;20052;-57
2023/03/17 05:01:17;;;;;;;5.53;1.92;;;;;;;3.51;68.77;96771.41;5073107;28;20039;-60
2023/03/17 05:03:44;;;;;;;5.68;2.00;;;;;;;3.49;68.95;96781.50;5077207;28;20078;-60
2023/03/17 05:06:11;;;;;;;4.90;2.13;;;;;;;3.50;68.58;96770.59;5083602;28;20452;-59
2023/03/17 05:08:37;;;;;;;5.05;2.10;;;;;;;3.51;68.56;96768.75;5072571;28;20037;-60
2023/03/17 05:11:04;;;;;;;5.50;2.33;;;;;;;3.51;68.50;96769.53;5076694;28;20047;-59
2023/03/17 05:13:31;;;;;;;4.18;1.80;;;;;;;3.50;68.83;96772.44;5070164;28;20047;-59
2023/03/17 05:15:59;;;;;;;4.20;2.03;;;;;;;3.53;68.56;96774.69;5081486;28;20071;-58
2023/03/17 05:18:26;;;;;;;4.60;2.17;;;;;;;3.54;68.49;96775.50;5073903;28;20090;-59
2023/03/17 05:20:52;;;;;;;4.78;2.03;;;;;;;3.52;68.92;96775.72;5071332;28;20082;-58
2023/03/17 05:23:19;;;;;;;3.95;2.08;;;;;;;3.59;68.19;96775.66;5081927;28;20119;-60
2023/03/17 05:25:47;;;;;;;4.43;2.22;;;;;;;3.62;68.12;96783.25;5071866;28;20040;-60
2023/03/17 05:28:14;;;;;;;4.93;2.55;;;;;;;3.61;68.24;96779.75;5078900;28;20048;-60
2023/03/17 05:30:42;;;;;;;4.38;1.85;;;;;;;3.56;68.79;96786.78;5078470;28;20059;-58
2023/03/17 05:33:09;;;;;;;5.07;2.40;;;;;;;3.59;68.42;96781.84;5076694;28;20057;-58
2023/03/17 05:35:35;;;;;;;5.53;2.05;;;;;;;3.60;68.51;96785.31;5072485;28;20040;-58
2023/03/17 05:38:02;;;;;;;4.22;1.98;;;;;;;3.60;68.42;96779.97;5079325;28;20165;-60
2023/03/17 05:40:29;;;;;;;5.80;2.20;;;;;;;3.67;68.00;96777.22;5078829;28;20110;-60
2023/03/17 05:42:56;;;;;;;5.82;2.25;;;;;;;3.69;67.96;96769.78;5077773;28;20032;-60
2023/03/17 05:45:22;;;;;;;4.78;2.42;;;;;;;3.67;68.07;96774.53;5072694;28;20677;-60
2023/03/17 05:47:49;;;;;;;5.07;2.17;;;;;;;3.64;68.33;96771.28;5080011;28;20056;-58
2023/03/17 05:50:16;;;;;;;6.05;2.25;;;;;;;3.69;68.10;96767.91;5082555;28;20143;-59
2023/03/17 05:52:42;;;;;;;3.42;2.10;;;;;;;3.73;68.11;96771.00;5070134;28;20051;-59
2023/03/17 05:55:09;;;;;;;5.57;2.42;;;;;;;3.77;67.72;96770.31;5074996;28;20557;-59
2023/03/17 05:57:36;;;;;;;6.78;2.17;;;;;;;3.86;67.36;96770.00;5071554;28;20048;-59
2023/03/17 06:00:04;;;;;;;8.00;2.20;;;;;;;3.88;67.36;96775.97;5077301;28;20105;-59
2023/03/17 06:02:31;;;;;;;8.45;2.35;;;;;;;3.99;66.75;96777.91;5072142;28;20094;-59
2023/03/17 06:04:57;;;;;;;4.85;2.42;;;;;;;4.08;66.18;96782.94;5076388;28;20224;-58
2023/03/17 06:07:24;;;;;;;7.15;2.72;;;;;;;4.10;66.23;96779.03;5079111;28;20058;-60
2023/03/17 06:09:50;;;;;;;4.78;2.20;;;;;;;4.16;65.90;96779.94;5077912;28;20101;-58
2023/03/17 06:12:17;;;;;;;7.38;2.10;;;;;;;4.18;65.78;96783.25;5078396;28;20032;-57
2023/03/17 06:14:44;;;;;;;4.53;2.45;;;;;;;4.19;65.92;96776.84;5072438;28;20735;-60
2023/03/17 06:17:11;;;;;;;6.85;2.10;;;;;;;4.27;65.36;96784.56;5076368;28;20118;-61
2023/03/17 06:19:37;;;;;;;5.20;2.10;;;;;;;4.36;64.84;96786.94;5082481;28;20060;-60
2023/03/17 06:22:04;;;;;;;4.13;2.13;;;;;;;4.45;64.85;96784.78;5079143;28;20043;-58
2023/03/17 06:24:31;;;;;;;4.80;2.30;;;;;;;4.54;64.17;96783.41;5075424;28;20052;-59
2023/03/17 06:26:57;;;;;;;4.07;1.98;;;;;;;4.68;63.59;96779.47;5076260;28;20388;-58
2023/03/17 06:29:24;;;;;;;4.65;2.03;;;;;;;5.03;61.91;96775.25;5072696;28;20064;-58
2023/03/17 06:31:51;;;;;;;4.57;2.20;;;;;;;5.23;61.62;96770.59;5078141;28;20122;-59
2023/03/17 06:34:18;;;;;;;5.25;2.03;;;;;;;5.34;60.92;96770.59;5078775;28;20043;-57
2023/03/17 06:36:45;;;;;;;4.70;1.92;;;;;;;5.40;60.69;96765.34;5085182;28;20048;-59
2023/03/17 06:39:13;;;;;;;4.53;1.88;;;;;;;5.62;60.10;96767.44;5076118;28;20127;-59
2023/03/17 06:41:39;;;;;;;3.42;1.73;;;;;;;5.85;58.66;96758.53;5080916;28;20052;-59
2023/03/17 06:44:07;;;;;;;6.03;2.30;;;;;;;6.08;58.30;96765.75;5069012;28;20070;-59
2023/03/17 06:46:34;;;;;;;4.95;1.95;;;;;;;6.34;57.24;96768.16;5076913;28;20064;-58
2023/03/17 06:49:02;;;;;;;4.20;1.83;;;;;;;6.34;58.05;96768.94;5072649;28;20050;-58
2023/03/17 06:51:29;;;;;;;4.20;1.98;;;;;;;6.38;58.17;96767.41;5084337;28;20044;-58
2023/03/17 06:53:56;;;;;;;4.13;2.03;;;;;;;6.54;57.70;96773.09;5071124;28;20044;-59
2023/03/17 06:56:23;;;;;;;2.90;1.80;;;;;;;6.71;56.78;96769.63;5082663;28;20048;-60
2023/03/17 06:58:55;;;;;;;4.93;2.13;;;;;;;6.76;56.34;96770.53;5078551;28;20048;-59
2023/03/17 07:01:22;;;;;;;3.60;1.92;;;;;;;6.82;56.58;96776.81;5076087;28;20098;-60
2023/03/17 07:03:49;;;;;;;4.72;1.75;;;;;;;6.89;56.51;96776.66;5076326;28;20052;-59
2023/03/17 07:06:16;;;;;;;4.85;2.20;;;;;;;7.01;56.00;96792.75;5079101;28;20106;-59
2023/03/17 07:08:42;;;;;;;4.85;2.10;;;;;;;7.08;55.65;96793.38;5074344;28;20124;-59
2023/03/17 07:11:09;;;;;;;4.43;2.40;;;;;;;7.14;55.23;96803.19;5079319;28;20698;-60
2023/03/17 07:13:37;;;;;;;7.15;3.88;;;;;;;7.19;55.61;96798.97;5072008;28;20041;-59
2023/03/17 07:16:04;;;;;;;4.90;2.50;;;;;;;7.24;55.23;96805.25;5076386;28;20040;-59
2023/03/17 07:18:31;;;;;;;5.70;3.00;;;;;;;7.32;55.57;96808.56;5078587;28;20318;-60
2023/03/17 07:21:01;;;;;;;9.18;3.95;;;;;;;7.40;55.15;96816.25;5076612;28;20040;-59
2023/03/17 07:23:28;;;;;;;6.63;3.28;;;;;;;7.45;55.36;96818.22;5076479;28;20301;-59
2023/03/17 07:25:56;;;;;;;5.55;2.72;;;;;;;7.47;55.56;96813.38;5075276;28;21144;-61
2023/03/17 07:28:23;;;;;;;7.63;1.83;;;;;;;7.49;55.21;96812.06;5073700;28;20040;-60
2023/03/17 07:30:50;;;;;;;5.10;2.58;;;;;;;7.57;55.27;96810.88;5079854;28;20052;-60
2023/03/17 07:33:19;;;;;;;13.90;8.05;;;;;;;7.60;54.50;96815.78;5072148;28;20078;-61
2023/03/17 07:35:47;;;;;;;15.68;12.55;;;;;;;7.64;54.93;96819.59;5077700;28;20039;-60
2023/03/17 07:38:16;;;;;;;10.57;5.43;;;;;;;7.70;54.79;96819.66;5075569;28;20152;-61
2023/03/17 07:40:46;;;;;;;20.90;14.20;;;;;;;7.72;55.16;96806.75;5073604;28;20751;-60
2023/03/17 07:43:13;;;;;;;6.13;2.25;;;;;;;7.81;55.18;96807.97;5076928;28;20044;-60
2023/03/17 07:45:40;;;;;;;3.75;2.00;;;;;;;7.86;54.42;96799.13;5074811;28;20051;-60
2023/03/17 07:48:07;;;;;;;4.38;2.10;;;;;;;7.84;54.36;96799.38;5075156;28;20052;-61
2023/03/17 07:50:34;;;;;;;4.97;1.88;;;;;;;8.03;54.52;96797.22;5081932;28;20036;-59
2023/03/17 07:53:02;;;;;;;6.53;2.47;;;;;;;8.08;54.80;96804.56;5079803;28;20596;-60
2023/03/17 07:55:30;;;;;;;5.68;3.20;;;;;;;8.10;55.61;96797.03;5077382;28;20045;-61
2023/03/17 07:57:57;;;;;;;7.05;2.85;;;;;;;8.17;55.01;96804.94;5085487;28;20090;-61
2023/03/17 08:00:25;;;;;;;6.80;2.65;;;;;;;8.20;54.28;96807.97;5081382;28;20039;-60
2023/03/17 08:02:52;;;;;;;7.00;2.92;;;;;;;8.35;53.98;96808.38;5073555;28;20048;-60
2023/03/17 08:05:34;;;;;;;6.35;2.45;;;;;;;8.61;53.75;96806.81;5078906;28;20127;-60
2023/03/17 08:08:01;;;;;;;6.10;2.88;;;;;;;8.77;53.42;96804.31;5075081;28;20032;-61
2023/03/17 08:10:27;;;;;;;5.38;2.22;;;;;;;8.77;52.69;96805.09;5070498;28;20036;-61
2023/03/17 08:12:54;;;;;;;4.40;2.15;;;;;;;8.88;52.29;96794.41;5080473;28;20136;-60
2023/03/17 08:15:21;;;;;;;3.35;1.60;;;;;;;8.97;51.74;96792.88;5066726;28;20060;-60
2023/03/17 08:17:48;;;;;;;6.18;1.95;;;;;;;9.02;52.23;96794.81;5075645;28;20044;-61
2023/03/17 08:20:14;;;;;;;3.78;1.77;;;;;;;9.13;52.13;96785.72;5069231;28;20517;-61
2023/03/17 08:22:41;;;;;;;3.25;1.70;;;;;;;9.23;51.39;96791.22;5076349;28;20650;-61
2023/03/17 08:25:08;;;;;;;3.45;1.60;;;;;;;9.31;52.29;96792.63;5071395;28;20055;-61
2023/03/17 08:27:35;;;;;;;3.50;1.73;;;;;;;9.43;52.19;96783.53;5084779;28;20040;-61
2023/03/17 08:30:03;;;;;;;4.15;1.98;;;;;;;9.48;52.13;96778.97;5076614;28;20134;-60
2023/03/17 08:32:29;;;;;;;4.50;1.70;;;;;;;9.58;51.60;96788.25;5072098;28;20044;-60
2023/03/17 08:34:56;;;;;;;3.83;1.85;;;;;;;9.71;51.51;96782.38;5079132;28;20051;-60
2023/03/17 08:37:23;;;;;;;5.72;2.08;;;;;;;9.76;50.40;96778.88;5073946;28;20680;-61
2023/03/17 08:39:50;;;;;;;4.53;1.60;;;;;;;9.88;50.92;96784.09;5075397;28;20101;-61
2023/03/17 08:42:16;;;;;;;3.67;1.58;;;;;;;10.10;50.56;96785.84;5073041;28;20181;-61
2023/03/17 08:44:43;;;;;;;3.20;1.50;;;;;;;10.21;49.70;96781.28;5072422;28;20072;-60
2023/03/17 08:47:09;;;;;;;4.32;1.58;;;;;;;10.20;49.52;96783.16;5080036;28;20705;-59
2023/03/17 08:49:36;;;;;;;3.15;1.42;;;;;;;10.33;50.21;96789.16;5078901;28;20072;-60
2023/03/17 08:52:03;;;;;;;3.85;1.40;;;;;;;10.54;48.24;96779.25;5077111;28;20040;-60
2023/03/17 08:54:30;;;;;;;3.25;1.40;;;;;;;10.69;49.19;96786.59;5070900;28;20461;-59
2023/03/17 08:56:57;;;;;;;4.47;1.38;;;;;;;10.79;47.78;96789.34;5075977;28;20036;-61
2023/03/17 08:59:23;;;;;;;4.10;1.60;;;;;;;10.85;48.83;96784.75;5071877;28;20120;-61
2023/03/17 09:01:50;;;;;;;2.40;1.00;;;;;;;10.90;48.04;96781.22;5076028;28;20539;-61
2023/03/17 09:04:17;;;;;;;3.38;1.23;;;;;;;10.88;48.47;96784.19;5072147;28;20044;-62
2023/03/17 09:06:44;;;;;;;3.38;1.23;;;;;;;10.87;47.39;96785.28;5070137;28;20465;-61
2023/03/17 09:09:29;;;;;;;3.80;1.77;;;;;;;10.98;47.77;96785.31;5072123;28;20044;-61
2023/03/17 09:11:56;;;;;;;5.00;2.20;;;;;;;11.22;47.88;96779.34;5075471;28;20047;-61
2023/03/17 09:14:23;;;;;;;2.95;1.33;;;;;;;11.29;47.08;96778.03;5074715;28;20059;-61
2023/03/17 09:16:50;;;;;;;4.25;1.55;;;;;;;11.47;47.19;96775.84;5074086;28;20105;-61
2023/03/17 09:19:16;;;;;;;7.43;1.73;;;;;;;11.54;47.26;96789.13;5072690;28;20635;-60
2023/03/17 09:21:43;;;;;;;2.28;1.10;;;;;;;11.56;46.27;96784.22;5073173;28;20102;-62
2023/03/17 09:24:10;;;;;;;3.50;1.50;;;;;;;11.56;45.92;96782.34;5069356;28;20040;-60
2023/03/17 09:26:37;;;;;;;2.75;1.20;;;;;;;11.56;46.49;96786.94;5070532;28;20037;-61
2023/03/17 09:29:04;;;;;;;4.03;1.63;;;;;;;11.62;47.71;96785.03;5071602;28;20519;-61
2023/03/17 09:31:32;;;;;;;3.72;1.30;;;;;;;11.69;46.45;96778.22;5073965;28;20040;-60
2023/03/17 09:33:58;;;;;;;2.38;1.30;;;;;;;11.71;45.72;96775.25;5080023;28;20055;-61
2023/03/17 09:36:25;;;;;;;3.33;1.40;;;;;;;11.69;46.20;96778.22;5077510;28;20072;-60
2023/03/17 09:38:51;;;;;;;6.88;2.03;;;;;;;11.68;45.84;96779.31;5081232;28;20412;-61
2023/03/17 09:41:18;;;;;;;2.78;1.33;;;;;;;11.81;45.47;96779.84;5068734;28;20119;-61
2023/03/17 09:44:14;;;;;;;1.95;0.90;;;;;;;11.88;45.90;96774.13;5081268;28;20040;-61
2023/03/17 09:47:11;;;;;;;5.65;1.23;;;;;;;11.98;45.43;96774.13;5070416;28;20047;-61
2023/03/17 09:49:45;;;;;;;4.80;1.40;;;;;;;12.18;45.33;96769.72;5077756;28;20038;-61
2023/03/17 09:52:14;;;;;;;2.40;1.40;;;;;;;12.34;46.38;96773.19;5081117;28;20047;-61
2023/03/17 09:54:42;;;;;;;4.07;1.00;;;;;;;12.47;44.41;96771.78;5077363;28;20039;-60
2023/03/17 09:57:15;;;;;;;3.95;1.10;;;;;;;12.64;44.35;96765.97;5073644;28;20313;-60
2023/03/17 09:59:46;;;;;;;2.58;1.15;;;;;;;12.83;44.33;96766.13;5076503;28;20097;-61
2023/03/17 10:02:31;;;;;;;2.70;1.13;;;;;;;13.05;44.07;96767.63;5070144;28;20048;-61
2023/03/17 10:05:10;;;;;;;2.97;1.30;;;;;;;13.20;44.68;96766.69;5073906;28;20044;-61
2023/03/17 10:08:03;;;;;;;2.95;1.10;;;;;;;13.38;45.60;96758.97;5070073;28;20043;-60
2023/03/17 10:10:52;;;;;;;2.25;1.05;;;;;;;13.44;43.96;96762.41;5072263;28;20048;-60
2023/03/17 10:13:54;;;;;;;4.22;1.40;;;;;;;13.56;43.56;96753.94;5071124;28;20585;-60
2023/03/17 10:16:24;;;;;;;;;;;;;;;13.60;43.37;96754.97;5068224;28;20113;-61
2023/03/17 10:18:55;;;;;;;8.00;2.10;;;;;;;13.74;44.38;96753.19;5075777;28;19920;-61
2023/03/17 10:21:28;;;;;;;3.00;1.20;;;;;;;13.82;44.59;96754.47;5079157;28;20491;-62
2023/03/17 10:23:56;;;;;;;2.97;1.38;;;;;;;13.95;45.25;96755.69;5082261;28;20055;-61
2023/03/17 10:26:38;;;;;;;4.88;1.60;;;;;;;14.03;44.88;96748.81;5071335;28;20539;-60
2023/03/17 10:29:11;;;;;;;;;;;;;;;14.10;44.45;96746.53;5067503;28;20051;-62
2023/03/17 10:31:38;;;;;;;6.97;1.63;;;;;;;14.09;44.55;96755.81;5077132;28;20453;-61
2023/03/17 10:34:16;;;;;;;4.97;1.83;;;;;;;14.04;46.18;96744.97;5066716;28;20040;-62
2023/03/17 10:36:47;;;;;;;4.63;1.77;;;;;;;14.26;46.28;96749.09;5077853;28;20064;-60
2023/03/17 10:39:18;;;;;;;5.60;1.90;;;;;;;14.37;46.88;96744.31;5081437;28;20566;-60
2023/03/17 10:41:53;;;;;;;7.20;2.00;;;;;;;14.21;46.80;96755.41;5076603;28;20097;-62
2023/03/17 10:44:38;;;;;;;8.05;2.25;;;;;;;14.51;46.61;96750.66;5080219;28;20071;-60
2023/03/17 10:47:18;;;;;;;8.75;2.47;;;;;;;14.76;45.81;96746.00;5069818;28;20048;-62
2023/03/17 10:49:45;;;;;;;4.47;1.95;;;;;;;14.95;45.63;96747.91;5068098;28;20053;-59
2023/03/17 10:52:20;;;;;;;4.10;1.88;;;;;;;14.74;45.29;96748.16;5080998;28;20059;-61
2023/03/17 10:54:48;;;;;;;5.72;2.08;;;;;;;14.81;45.70;96739.66;5081987;28;20036;-61
2023/03/17 10:57:14;;;;;;;4.22;1.77;;;;;;;14.73;45.48;96743.00;5073326;28;20057;-60
2023/03/17 10:59:46;;;;;;;6.30;2.05;;;;;;;14.75;44.81;96735.38;5076919;28;20067;-61
2023/03/17 11:02:34;;;;;;;5.15;1.77;;;;;;;14.94;44.41;96735.38;5076623;28;20519;-61
2023/03/17 11:05:08;;;;;;;8.88;2.25;;;;;;;14.96;44.42;96730.44;5064660;28;20102;-60
2023/03/17 11:07:38;;;;;;;4.10;1.75;;;;;;;15.16;43.89;96714.88;5064401;28;20074;-60
2023/03/17 11:10:26;;;;;;;3.92;1.63;;;;;;;15.19;45.17;96719.72;5067528;28;20032;-60
2023/03/17 11:13:00;;;;;;;3.67;1.67;;;;;;;15.00;46.16;96725.22;5074248;28;20737;-61
2023/03/17 11:15:41;;;;;;;4.35;1.70;;;;;;;15.14;46.36;96726.06;5074255;28;20043;-61
2023/03/17 11:18:24;;;;;;;7.43;2.08;;;;;;;15.18;46.83;96721.63;5074094;28;20062;-61
2023/03/17 11:21:09;;;;;;;4.82;2.22;;;;;;;15.02;47.43;96709.34;5064920;28;20795;-60
2023/03/17 11:23:48;;;;;;;5.95;2.15;;;;;;;15.30;46.76;96706.72;5083710;28;20051;-61
2023/03/17 11:26:42;;;;;;;5.72;2.38;;;;;;;15.47;46.48;96704.22;5069504;28;20097;-61
2023/03/17 11:29:25;;;;;;;4.43;2.15;;;;;;;15.37;46.65;96701.69;5074558;28;20075;-62
2023/03/17 11:32:31;;;;;;;9.05;2.55;;;;;;;15.48;46.24;96696.84;5073207;28;20192;-62
2023/03/17 11:35:11;;;;;;;9.73;3.25;;;;;;;15.42;46.31;96695.31;5065582;28;20037;-60
2023/03/17 11:37:55;;;;;;;5.18;2.30;;;;;;;15.47;45.68;96701.50;5070704;28;20067;-61
2023/03/17 11:40:33;;;;;;;8.85;2.40;;;;;;;15.58;45.27;96690.41;5075574;28;20119;-61
2023/03/17 11:43:22;;;;;;;7.03;2.60;;;;;;;15.60;45.21;96694.44;5082568;28;20418;-61
2023/03/17 11:46:04;;;;;;;6.68;2.33;;;;;;;15.98;45.11;96698.94;5071428;28;20051;-60
2023/03/17 11:48:55;;;;;;;5.28;2.60;;;;;;;15.76;45.02;96693.34;5066183;28;20676;-61
2023/03/17 11:51:45;;;;;;;6.85;2.60;;;;;;;15.87;45.03;96683.84;5064924;28;20454;-62